Decoded Metar for EPMO ( in ) (IATA:) | Meteo·Mobile Aviation Weather
aviador You're here:

EPMO Decoded Metar

in
Report Time2018-09-18 13:30:00
UTC Time2018-09-18 13:44:21
Flight Rules vfr VFR
Wind210° at 09 kt
W.Decomp.*RWY 26: 5.8 kt HW 6.9 kt LCW
W.Rank210° ranks 14
Current wind is above 210° avg. (6.9)
Visibility9999 m
Phenomena:N/A
Clouds:N/A
Expected CloudBase > 5,600 ft AGL from Temp-Dew spread
CeilingNone
Temp26°C
Dew Point12°C (42% RH)
AAT23.4°C
QNH1018 hPa
Raw Report
EPMO 181330Z 21009KT 170V240 CAVOK 26/12 Q1018=

Extra information for EPMO:More info

Social comments